Time;durP1;ratioP1;P1;durP2;ratioP2;P2;SDS_P1;SDS_P2;PMS_P1;PMS_P2;Temp;Humidity;BMP_temperature;BMP_pressure;BME280_temperature;BME280_humidity;BME280_pressure;Samples;Min_cycle;Max_cycle;Signal;HPM_P1;HPM_P2
2022/06/03 00:00:10;;;;;;;7.30;2.50;;;10.80;99.90;;;;;;6273536;22;20028;-76
2022/06/03 00:02:44;;;;;;;4.68;2.95;;;10.80;99.90;;;;;;6273797;22;20016;-76
2022/06/03 00:05:29;;;;;;;5.28;2.97;;;10.80;99.90;;;;;;6273696;22;20476;-79
2022/06/03 00:08:11;;;;;;;3.67;2.40;;;10.80;99.90;;;;;;6273661;22;20012;-76
2022/06/03 00:10:46;;;;;;;5.60;2.83;;;10.80;99.90;;;;;;6273416;22;20062;-78
2022/06/03 00:13:18;;;;;;;6.10;2.50;;;10.70;99.90;;;;;;6275617;22;20023;-78
2022/06/03 00:16:09;;;;;;;4.00;2.53;;;10.70;99.90;;;;;;6276242;22;20399;-78
2022/06/03 00:18:53;;;;;;;4.32;2.65;;;10.70;99.90;;;;;;6275589;22;20533;-77
2022/06/03 00:21:47;;;;;;;5.13;3.08;;;10.60;99.90;;;;;;6275650;22;20016;-76
2022/06/03 00:24:31;;;;;;;6.57;3.20;;;10.60;99.90;;;;;;6275761;22;20091;-78
2022/06/03 00:27:12;;;;;;;6.03;3.00;;;10.50;99.90;;;;;;6275914;22;20145;-78
2022/06/03 00:29:50;;;;;;;5.55;2.65;;;10.50;99.90;;;;;;6276037;22;20023;-78
2022/06/03 00:32:40;;;;;;;4.82;2.90;;;10.50;99.90;;;;;;6276129;22;20133;-78
2022/06/03 00:35:14;;;;;;;5.57;2.72;;;10.40;99.90;;;;;;6276081;22;20134;-78
2022/06/03 00:37:48;;;;;;;4.32;2.83;;;10.40;99.90;;;;;;6276213;22;20019;-78
2022/06/03 00:40:51;;;;;;;3.65;2.63;;;10.40;99.90;;;;;;6275378;22;20019;-78
2022/06/03 00:43:41;;;;;;;5.53;2.97;;;10.40;99.90;;;;;;6276248;22;20012;-78
2022/06/03 00:46:16;;;;;;;6.10;2.90;;;10.30;99.90;;;;;;6276800;22;20015;-78
2022/06/03 00:48:49;;;;;;;3.92;2.67;;;10.30;99.90;;;;;;6276352;22;20020;-78
2022/06/03 00:51:33;;;;;;;;;;;10.30;99.90;;;;;;6276208;22;20019;-78
2022/06/03 00:54:02;;;;;;;;;;;10.30;99.90;;;;;;6276596;22;19911;-78
2022/06/03 00:56:36;;;;;;;;;;;10.20;99.90;;;;;;6276492;22;19980;-78
2022/06/03 00:59:09;;;;;;;;;;;10.20;99.90;;;;;;6276167;22;19916;-78
2022/06/03 01:01:54;;;;;;;;;;;10.20;99.90;;;;;;6276472;22;19915;-78
2022/06/03 01:04:35;;;;;;;;;;;10.20;99.90;;;;;;6275761;22;19915;-77
2022/06/03 01:07:09;;;;;;;;;;;10.20;99.90;;;;;;6276389;22;19989;-78
2022/06/03 01:09:49;;;;;;;;;;;10.10;99.90;;;;;;6276675;22;19911;-78
2022/06/03 01:12:20;;;;;;;;;;;10.10;99.90;;;;;;6275867;22;19926;-78
2022/06/03 01:15:09;;;;;;;;;;;10.10;99.90;;;;;;6277219;22;19978;-78
2022/06/03 01:17:34;;;;;;;;;;;10.00;99.90;;;;;;6276159;22;19926;-77
2022/06/03 01:20:06;;;;;;;;;;;10.10;99.90;;;;;;6273926;22;19911;-76
2022/06/03 01:22:34;;;;;;;;;;;10.00;99.90;;;;;;6247749;22;19985;-76
2022/06/03 01:25:18;;;;;;;;;;;10.00;99.90;;;;;;6274958;22;19949;-76
2022/06/03 01:27:43;;;;;;;;;;;10.10;99.90;;;;;;6273292;22;20363;-76
2022/06/03 01:30:18;;;;;;;;;;;10.00;99.90;;;;;;6247632;22;19915;-77
2022/06/03 01:33:02;;;;;;;;;;;10.00;99.90;;;;;;6273844;22;20357;-76
2022/06/03 01:35:37;;;;;;;;;;;9.90;99.90;;;;;;6296910;22;19918;-77
2022/06/03 01:38:21;;;;;;;;;;;9.90;99.90;;;;;;6301494;22;19906;-79
2022/06/03 01:40:50;;;;;;;;;;;9.90;99.90;;;;;;6273331;22;20341;-77
2022/06/03 01:43:29;;;;;;;;;;;9.80;99.90;;;;;;6273375;22;19917;-78
2022/06/03 01:46:00;;;;;;;;;;;9.90;99.90;;;;;;6275285;22;19923;-76
2022/06/03 01:48:36;;;;;;;;;;;9.80;99.90;;;;;;6275276;22;19915;-76
2022/06/03 01:51:20;;;;;;;;;;;9.80;99.90;;;;;;6273138;22;19911;-77
2022/06/03 01:53:58;;;;;;;;;;;9.80;99.90;;;;;;6273510;22;19911;-77
2022/06/03 01:56:47;;;;;;;;;;;9.80;99.90;;;;;;6273720;22;20333;-77
2022/06/03 01:59:31;;;;;;;;;;;9.80;99.90;;;;;;6273280;22;19950;-76
2022/06/03 02:02:12;;;;;;;;;;;9.70;99.90;;;;;;6273447;22;19947;-76
2022/06/03 02:04:41;;;;;;;;;;;9.70;99.90;;;;;;6273239;22;19965;-76
2022/06/03 02:07:12;;;;;;;;;;;9.70;99.90;;;;;;6247556;22;20387;-76
2022/06/03 02:09:38;;;;;;;;;;;9.70;99.90;;;;;;6272896;22;19949;-77
2022/06/03 02:12:12;;;;;;;;;;;9.70;99.90;;;;;;6272989;22;19915;-76
2022/06/03 02:14:57;;;;;;;;;;;9.70;99.90;;;;;;6272971;22;19911;-78
2022/06/03 02:17:41;;;;;;;;;;;9.60;99.90;;;;;;6273056;22;19911;-76
2022/06/03 02:20:25;;;;;;;;;;;9.60;99.90;;;;;;6272734;22;19912;-76
2022/06/03 02:22:50;;;;;;;;;;;9.60;99.90;;;;;;6273252;22;19918;-76
2022/06/03 02:25:22;;;;;;;;;;;9.50;99.90;;;;;;6247568;22;19911;-78
2022/06/03 02:28:06;;;;;;;;;;;9.50;99.90;;;;;;6273038;22;19918;-76
2022/06/03 02:30:44;;;;;;;;;;;9.50;99.90;;;;;;6272670;22;19915;-77
2022/06/03 02:33:19;;;;;;;;;;;9.40;99.90;;;;;;6273041;22;19945;-77
2022/06/03 02:35:54;;;;;;;;;;;9.40;99.90;;;;;;6273243;22;19910;-76
2022/06/03 02:38:32;;;;;;;;;;;9.40;99.90;;;;;;6298763;22;20240;-76
2022/06/03 02:41:06;;;;;;;;;;;9.40;99.90;;;;;;6272723;22;19918;-76
2022/06/03 02:43:47;;;;;;;;;;;9.30;99.90;;;;;;6273253;22;19911;-76
2022/06/03 02:46:31;;;;;;;;;;;9.30;99.90;;;;;;6273320;22;20312;-77
2022/06/03 02:49:09;;;;;;;;;;;9.30;99.90;;;;;;6272991;22;20005;-76
2022/06/03 02:51:49;;;;;;;;;;;9.30;99.90;;;;;;6272683;22;19911;-78
2022/06/03 02:54:18;;;;;;;;;;;9.30;99.90;;;;;;6273206;22;19911;-77
2022/06/03 02:57:02;;;;;;;;;;;9.30;99.90;;;;;;6273087;22;20339;-76
2022/06/03 02:59:46;;;;;;;;;;;9.30;99.90;;;;;;6272557;22;19919;-76
2022/06/03 03:02:27;;;;;;;;;;;9.30;99.90;;;;;;6273195;22;20221;-76
2022/06/03 03:05:12;;;;;;;;;;;9.30;99.90;;;;;;6273214;22;19911;-76
2022/06/03 03:07:37;;;;;;;;;;;9.20;99.90;;;;;;6274396;22;20347;-76
2022/06/03 03:10:14;;;;;;;;;;;9.20;99.90;;;;;;6274489;22;19919;-76
2022/06/03 03:13:05;;;;;;;;;;;9.20;99.90;;;;;;6273014;22;20328;-76
2022/06/03 03:15:45;;;;;;;;;;;9.20;99.90;;;;;;6272964;22;19934;-76
2022/06/03 03:18:13;;;;;;;;;;;9.20;99.90;;;;;;6272676;22;20005;-76
2022/06/03 03:20:53;;;;;;;;;;;9.20;99.90;;;;;;6272522;22;20337;-76
2022/06/03 03:23:37;;;;;;;;;;;9.20;99.90;;;;;;6273675;22;19915;-76
2022/06/03 03:26:21;;;;;;;;;;;9.20;99.90;;;;;;6276254;22;19911;-76
2022/06/03 03:28:57;;;;;;;;;;;9.20;99.90;;;;;;6276172;22;19922;-76
2022/06/03 03:31:22;;;;;;;;;;;9.10;99.90;;;;;;6274193;22;19911;-76
2022/06/03 03:34:00;;;;;;;;;;;9.20;99.90;;;;;;6274531;22;19911;-76
2022/06/03 03:36:32;;;;;;;;;;;9.20;99.90;;;;;;6274422;22;19911;-76
2022/06/03 03:39:00;;;;;;;;;;;9.20;99.90;;;;;;6274551;22;20256;-76
2022/06/03 03:41:44;;;;;;;;;;;9.20;99.90;;;;;;6273977;22;19953;-76
2022/06/03 03:44:20;;;;;;;;;;;9.20;99.90;;;;;;6274260;22;19911;-76
2022/06/03 03:47:13;;;;;;;;;;;9.20;99.90;;;;;;6274458;22;19915;-76
2022/06/03 03:49:54;;;;;;;;;;;9.20;99.90;;;;;;6274165;22;19933;-76
2022/06/03 03:52:35;;;;;;;;;;;9.30;99.90;;;;;;6274379;22;20365;-76
2022/06/03 03:55:00;;;;;;;;;;;9.30;99.90;;;;;;6274573;22;20591;-78
2022/06/03 03:57:29;;;;;;;;;;;9.30;99.90;;;;;;6274430;22;19973;-76
2022/06/03 03:59:57;;;;;;;;;;;9.30;99.90;;;;;;6273810;22;19922;-76
2022/06/03 04:02:38;;;;;;;;;;;9.30;99.90;;;;;;6274076;22;19949;-77
2022/06/03 04:05:10;;;;;;;;;;;9.30;99.90;;;;;;6274348;22;19914;-77
2022/06/03 04:07:41;;;;;;;;;;;9.30;99.90;;;;;;6274197;22;19911;-76
2022/06/03 04:10:26;;;;;;;;;;;9.40;99.90;;;;;;6248071;22;19968;-78
2022/06/03 04:13:09;;;;;;;;;;;9.40;99.90;;;;;;6274019;22;19964;-76
2022/06/03 04:15:46;;;;;;;;;;;9.40;99.90;;;;;;6274067;22;20353;-76
2022/06/03 04:18:11;;;;;;;;;;;9.40;99.90;;;;;;6274418;22;19949;-78
2022/06/03 04:20:47;;;;;;;;;;;9.40;99.90;;;;;;6273769;22;19942;-76
2022/06/03 04:23:25;;;;;;;;;;;9.50;99.90;;;;;;6274094;22;20301;-76
2022/06/03 04:26:10;;;;;;;;;;;9.50;99.90;;;;;;6274182;22;19911;-75
2022/06/03 04:29:02;;;;;;;;;;;9.50;99.90;;;;;;6274059;22;20006;-76
2022/06/03 04:31:40;;;;;;;;;;;9.60;99.90;;;;;;6238639;22;19910;-76
2022/06/03 04:34:12;;;;;;;;;;;9.60;99.90;;;;;;6273953;22;19919;-79
2022/06/03 04:36:38;;;;;;;;;;;9.70;99.90;;;;;;6274788;22;19917;-79
2022/06/03 04:39:22;;;;;;;;;;;9.80;99.90;;;;;;6274911;22;19916;-79
2022/06/03 04:41:53;;;;;;;;;;;9.80;99.90;;;;;;6274273;22;19947;-80
2022/06/03 04:44:22;;;;;;;;;;;9.90;99.90;;;;;;6248814;22;20329;-80
2022/06/03 04:46:47;;;;;;;;;;;10.00;99.90;;;;;;6248726;22;19945;-79
2022/06/03 04:49:32;;;;;;;;;;;10.20;99.90;;;;;;6274923;22;19985;-79
2022/06/03 04:52:06;;;;;;;;;;;10.50;99.90;;;;;;6274585;22;20006;-79
2022/06/03 04:54:50;;;;;;;;;;;10.80;99.90;;;;;;6275266;22;19954;-80
2022/06/03 04:57:35;;;;;;;;;;;11.10;99.90;;;;;;6288639;22;19955;-80
2022/06/03 05:00:00;;;;;;;;;;;11.30;99.90;;;;;;6289849;22;20268;-79
2022/06/03 05:02:56;;;;;;;;;;;11.40;99.90;;;;;;6285728;22;19911;-80
2022/06/03 05:05:49;;;;;;;;;;;11.40;99.90;;;;;;6285574;22;20328;-80
2022/06/03 05:08:35;;;;;;;;;;;11.60;99.90;;;;;;6275348;22;20402;-79
2022/06/03 05:11:24;;;;;;;;;;;12.20;99.90;;;;;;6274585;22;19911;-79
2022/06/03 05:14:21;;;;;;;;;;;12.90;99.90;;;;;;6246528;22;19916;-79
2022/06/03 05:17:06;;;;;;;;;;;13.40;99.90;;;;;;6219666;23;20476;-79
2022/06/03 05:19:31;;;;;;;;;;;13.80;99.90;;;;;;6219863;23;19985;-77
2022/06/03 05:22:06;;;;;;;;;;;14.30;99.90;;;;;;6195284;23;20329;-79
2022/06/03 05:24:37;;;;;;;;;;;14.70;99.90;;;;;;6222032;23;19918;-78
2022/06/03 05:27:21;;;;;;;;;;;15.00;99.90;;;;;;6196281;23;20344;-79
2022/06/03 05:29:50;;;;;;;;;;;15.10;99.90;;;;;;6219672;23;19934;-80
2022/06/03 05:32:16;;;;;;;;;;;15.30;99.90;;;;;;6217487;22;20296;-79
2022/06/03 05:34:41;;;;;;;;;;;15.40;99.90;;;;;;6217847;23;19911;-79
2022/06/03 05:37:25;;;;;;;;;;;15.80;99.90;;;;;;6217675;23;19911;-79
2022/06/03 05:40:14;;;;;;;;;;;16.00;99.90;;;;;;6216706;23;19970;-80
2022/06/03 05:42:46;;;;;;;;;;;16.20;99.90;;;;;;6205354;23;19912;-79
2022/06/03 05:45:18;;;;;;;;;;;16.50;99.90;;;;;;6244050;23;19919;-80
2022/06/03 05:47:49;;;;;;;;;;;16.70;99.90;;;;;;6217507;23;19912;-79
2022/06/03 05:50:19;;;;;;;;;;;16.90;99.90;;;;;;6216904;23;19918;-81
2022/06/03 05:53:17;;;;;;;;;;;17.10;99.90;;;;;;6192816;23;20253;-80
2022/06/03 05:55:42;;;;;;;;;;;17.20;99.90;;;;;;6153657;22;19920;-77
2022/06/03 05:58:14;;;;;;;;;;;17.60;99.90;;;;;;6244622;23;19940;-80
2022/06/03 06:00:48;;;;;;;;;;;17.70;99.90;;;;;;6269949;23;19900;-79
2022/06/03 06:03:20;;;;;;;;;;;17.70;99.90;;;;;;6249944;22;20042;-80
2022/06/03 06:06:04;;;;;;;;;;;17.90;99.90;;;;;;6216641;23;19911;-80
2022/06/03 06:08:51;;;;;;;;;;;18.20;99.90;;;;;;6217154;23;20214;-79
2022/06/03 06:11:17;;;;;;;;;;;18.50;99.90;;;;;;6201294;23;19991;-78
2022/06/03 06:14:01;;;;;;;;;;;18.60;99.90;;;;;;6216570;22;20332;-80
2022/06/03 06:16:32;;;;;;;;;;;18.90;99.90;;;;;;6217151;23;19933;-79
2022/06/03 06:19:22;;;;;;;;;;;19.10;99.90;;;;;;6243972;23;19943;-80
2022/06/03 06:22:07;;;;;;;;;;;19.10;99.90;;;;;;6216931;23;20329;-80
2022/06/03 06:24:45;;;;;;;;;;;19.10;99.90;;;;;;6191430;23;19949;-80
2022/06/03 06:27:40;;;;;;;;;;;19.30;99.90;;;;;;6217190;23;20248;-80
2022/06/03 06:30:12;;;;;;;;;;;19.50;99.90;;;;;;6196874;23;19912;-79
2022/06/03 06:32:47;;;;;;;;;;;19.70;99.90;;;;;;6191764;23;19912;-79
2022/06/03 06:35:31;;;;;;;;;;;19.70;99.90;;;;;;6192654;23;19915;-80
2022/06/03 06:37:56;;;;;;;;;;;19.80;99.90;;;;;;6217676;23;19916;-80
2022/06/03 06:40:34;;;;;;;;;;;20.00;99.60;;;;;;6216332;23;19954;-80
2022/06/03 06:43:18;;;;;;;;;;;20.10;99.90;;;;;;6193499;23;19916;-79
2022/06/03 06:46:04;;;;;;;;;;;20.20;99.90;;;;;;6245660;23;19916;-80
2022/06/03 06:48:49;;;;;;;;;;;20.10;98.70;;;;;;6147856;23;19943;-80
2022/06/03 06:51:34;;;;;;;;;;;20.30;99.90;;;;;;6217382;23;19922;-81
2022/06/03 06:54:12;;;;;;;;;;;20.50;99.90;;;;;;6146965;23;19911;-82
2022/06/03 06:56:37;;;;;;;;;;;20.50;98.10;;;;;;6218251;23;19912;-80
2022/06/03 06:59:07;;;;;;;;;;;20.70;98.80;;;;;;6220977;23;19915;-81
2022/06/03 07:01:38;;;;;;;;;;;20.80;97.60;;;;;;6222078;23;20261;-81
2022/06/03 07:04:12;;;;;;;;;;;20.80;98.00;;;;;;6219928;23;19915;-81
2022/06/03 07:06:43;;;;;;;;;;;20.60;98.10;;;;;;6219486;23;19911;-81
2022/06/03 07:09:11;;;;;;;;;;;20.70;99.40;;;;;;6193270;23;20011;-81
2022/06/03 07:11:45;;;;;;;;;;;21.10;99.90;;;;;;6219005;23;19911;-81
2022/06/03 07:14:12;;;;;;;;;;;21.50;96.80;;;;;;6231510;22;20300;-81
2022/06/03 07:19:51;;;;;;;;;;;21.30;96.20;;;;;;6274181;22;20321;-83
2022/06/03 07:22:31;;;;;;;;;;;21.20;95.80;;;;;;6275528;22;19911;-81
2022/06/03 07:25:00;;;;;;;;;;;21.40;95.40;;;;;;6274435;22;20233;-79
2022/06/03 07:27:31;;;;;;;;;;;21.60;95.60;;;;;;6274493;22;19965;-79
2022/06/03 07:30:12;;;;;;;;;;;21.80;94.60;;;;;;6250884;22;19915;-82
2022/06/03 07:32:44;;;;;;;;;;;21.90;96.80;;;;;;6276470;22;19911;-81
2022/06/03 07:35:19;;;;;;;;;;;22.00;95.30;;;;;;6274854;22;20417;-82
2022/06/03 07:38:05;;;;;;;;;;;22.10;96.20;;;;;;6275001;22;19953;-81
2022/06/03 07:40:49;;;;;;;;;;;22.30;94.80;;;;;;6259173;22;19911;-82
2022/06/03 07:43:27;;;;;;;;;;;22.50;91.10;;;;;;6274700;22;19922;-81
2022/06/03 07:45:58;;;;;;;;;;;22.70;93.10;;;;;;6276913;22;20644;-80
2022/06/03 07:48:26;;;;;;;;;;;22.80;91.00;;;;;;6274506;22;20046;-80
2022/06/03 07:50:54;;;;;;;;;;;22.60;90.40;;;;;;6275553;22;19918;-80
2022/06/03 07:53:39;;;;;;;;;;;22.40;86.60;;;;;;6274063;22;19911;-79
2022/06/03 07:56:05;;;;;;;;;;;22.20;91.40;;;;;;6273700;22;19995;-80
2022/06/03 07:58:33;;;;;;;;;;;22.10;91.60;;;;;;6274641;22;19951;-80
2022/06/03 08:00:59;;;;;;;;;;;22.00;93.10;;;;;;6274287;22;20233;-80
2022/06/03 08:03:32;;;;;;;;;;;22.00;96.70;;;;;;6276589;22;20454;-80
2022/06/03 08:06:00;;;;;;;;;;;22.00;94.80;;;;;;6274812;22;20376;-79
2022/06/03 08:11:15;;;;;;;;;;;22.30;92.80;;;;;;6274191;22;20300;-79
2022/06/03 08:13:41;;;;;;;;;;;22.50;93.40;;;;;;6271702;22;20652;-78
2022/06/03 08:16:25;;;;;;;;;;;22.40;92.40;;;;;;6218525;23;19915;-78
2022/06/03 08:18:51;;;;;;;;;;;22.30;90.70;;;;;;6218174;23;19923;-78
2022/06/03 08:21:21;;;;;;;;;;;22.50;94.20;;;;;;6217878;23;19960;-78
2022/06/03 08:23:47;;;;;;;;;;;22.40;90.70;;;;;;6218039;23;19918;-77
2022/06/03 08:26:17;;;;;;;;;;;22.30;90.50;;;;;;6218270;23;19978;-78
2022/06/03 08:28:50;;;;;;;;;;;22.20;92.80;;;;;;6217973;23;19915;-79
2022/06/03 08:31:18;;;;;;;;;;;22.20;92.80;;;;;;6217536;23;19912;-78
2022/06/03 08:33:43;;;;;;;;;;;22.30;95.00;;;;;;6217835;23;19974;-78
2022/06/03 08:36:12;;;;;;;;;;;22.40;95.10;;;;;;6217985;23;19912;-79
2022/06/03 08:38:45;;;;;;;;;;;22.70;95.20;;;;;;6217938;23;19916;-79
2022/06/03 08:41:29;;;;;;;;;;;22.80;78.90;;;;;;6218437;23;19915;-79
2022/06/03 08:44:00;;;;;;;;;;;22.90;91.30;;;;;;6218243;23;19994;-78
2022/06/03 08:46:27;;;;;;;;;;;22.80;91.30;;;;;;6218431;23;19919;-78
2022/06/03 08:48:59;;;;;;;;;;;22.80;84.90;;;;;;6218424;23;20006;-79
2022/06/03 08:51:30;;;;;;;;;;;22.80;91.30;;;;;;6217479;23;19994;-77
2022/06/03 08:53:59;;;;;;;;;;;22.90;91.20;;;;;;6217967;23;19919;-78
2022/06/03 08:56:30;;;;;;;;;;;22.90;85.50;;;;;;6217823;23;20109;-78
2022/06/03 08:58:58;;;;;;;;;;;23.00;89.80;;;;;;6217955;23;19915;-79
2022/06/03 09:01:27;;;;;;;;;;;23.10;91.50;;;;;;6217516;23;19922;-78
2022/06/03 09:04:02;;;;;;;;;;;23.10;90.00;;;;;;6217672;23;19916;-78
2022/06/03 09:06:35;;;;;;;;;;;23.10;85.00;;;;;;6217966;23;19935;-77
2022/06/03 09:09:06;;;;;;;;;;;22.80;84.40;;;;;;6218279;23;19958;-78
2022/06/03 09:11:35;;;;;;;;;;;22.60;90.00;;;;;;6217306;23;19915;-78
2022/06/03 09:14:03;;;;;;;;;;;22.50;90.50;;;;;;6226385;22;19961;-79
2022/06/03 09:16:29;;;;;;;;;;;22.60;91.80;;;;;;6273746;22;19918;-79
2022/06/03 09:19:01;;;;;;;;;;;22.80;93.50;;;;;;6273447;22;19930;-78
2022/06/03 09:21:31;;;;;;;;;;;23.00;90.00;;;;;;6273094;22;19911;-79
2022/06/03 09:24:02;;;;;;;;;;;23.30;90.60;;;;;;6273415;22;19922;-78
2022/06/03 09:26:29;;;;;;;;;;;23.50;88.00;;;;;;6273729;22;19915;-78
2022/06/03 09:28:59;;;;;;;;;;;23.40;90.70;;;;;;6273430;22;19919;-77
2022/06/03 09:31:25;;;;;;;;;;;23.50;84.80;;;;;;6273082;22;20391;-79
2022/06/03 09:33:52;;;;;;;;;;;23.50;77.80;;;;;;6274298;22;19960;-80
2022/06/03 09:36:19;;;;;;;;;;;23.40;81.30;;;;;;6283959;22;19919;-80
2022/06/03 09:38:47;;;;;;;;;;;23.40;82.50;;;;;;6280209;22;19941;-80
2022/06/03 09:41:13;;;;;;;;;;;23.60;79.60;;;;;;6277330;22;19911;-79
2022/06/03 09:43:42;;;;;;;;;;;23.60;78.10;;;;;;6275856;22;19933;-79
2022/06/03 09:46:11;;;;;;;;;;;23.80;79.80;;;;;;6278796;22;19915;-79
2022/06/03 09:48:37;;;;;;;;;;;24.00;71.80;;;;;;6280716;22;19922;-79
2022/06/03 09:51:24;;;;;;;;;;;24.00;74.10;;;;;;6277301;22;19911;-79
2022/06/03 09:53:50;;;;;;;;;;;24.10;81.10;;;;;;6278207;22;19917;-80
2022/06/03 09:56:21;;;;;;;;;;;24.30;74.80;;;;;;6277507;22;19942;-79
2022/06/03 09:58:47;;;;;;;;;;;24.40;64.50;;;;;;6274184;22;19955;-78
2022/06/03 10:01:13;;;;;;;;;;;24.40;70.10;;;;;;6248649;22;19934;-79
2022/06/03 10:03:39;;;;;;;;;;;24.50;75.40;;;;;;6273266;22;19915;-78
2022/06/03 10:06:04;;;;;;;;;;;24.40;70.60;;;;;;6273820;22;19915;-79
2022/06/03 10:12:48;;;;;;;;;;;24.20;60.30;;;;;;6273354;22;19919;-78
2022/06/03 10:14:24;;;;;;;;;;;23.90;66.60;;;;;;6202351;23;19916;-73
2022/06/03 10:16:49;;;;;;;;;;;24.10;66.90;;;;;;6208344;23;19935;-80
2022/06/03 10:19:15;;;;;;;;;;;24.30;72.10;;;;;;6237626;22;19926;-79
2022/06/03 10:21:49;;;;;;;;;;;24.40;65.40;;;;;;6247102;22;20000;-78
2022/06/03 10:24:15;;;;;;;;;;;24.40;67.30;;;;;;6247823;22;19942;-80
2022/06/03 10:26:49;;;;;;;;;;;24.30;73.20;;;;;;6272495;22;20325;-80
2022/06/03 10:29:16;;;;;;;;;;;24.30;71.30;;;;;;6273239;22;19915;-80
2022/06/03 10:31:46;;;;;;;;;;;24.30;69.20;;;;;;6273444;22;19989;-78
2022/06/03 10:34:14;;;;;;;;;;;24.40;71.50;;;;;;6274900;22;20006;-79
2022/06/03 10:36:42;;;;;;;;;;;24.40;72.30;;;;;;6274693;22;19918;-79
2022/06/03 10:39:09;;;;;;;;;;;24.60;71.20;;;;;;6274532;22;19919;-79
2022/06/03 10:41:38;;;;;;;;;;;24.70;70.60;;;;;;6274069;22;19922;-77
2022/06/03 10:44:14;;;;;;;;;;;24.90;62.00;;;;;;6276317;22;19915;-77
2022/06/03 10:46:53;;;;;;;;;;;24.60;56.30;;;;;;6274622;22;19911;-78
2022/06/03 10:49:19;;;;;;;;;;;24.50;61.40;;;;;;6274285;22;19911;-77
2022/06/03 11:02:43;;;;;;;;;;;24.70;60.40;;;;;;6274614;22;19972;-79
2022/06/03 11:05:12;;;;;;;;;;;24.50;61.60;;;;;;6250224;22;19911;-81
2022/06/03 11:07:38;;;;;;;;;;;24.50;62.40;;;;;;6275671;22;19965;-79
2022/06/03 11:10:05;;;;;;;;;;;24.30;61.80;;;;;;6275648;22;19925;-80
2022/06/03 11:12:31;;;;;;;;;;;23.90;66.50;;;;;;6274284;22;19915;-82
2022/06/03 11:14:57;;;;;;;;;;;23.90;66.90;;;;;;6274678;22;20000;-78
2022/06/03 11:17:31;;;;;;;;;;;24.00;73.30;;;;;;6249658;22;20328;-78
2022/06/03 11:19:58;;;;;;;;;;;24.00;65.00;;;;;;6250249;22;20248;-80
2022/06/03 11:22:32;;;;;;;;;;;23.90;65.30;;;;;;6276117;22;20271;-79
2022/06/03 11:25:02;;;;;;;;;;;23.80;68.10;;;;;;6275121;22;19911;-80
2022/06/03 11:27:31;;;;;;;;;;;24.00;85.10;;;;;;6274993;22;19915;-80
2022/06/03 11:30:00;;;;;;;;;;;24.00;64.50;;;;;;6274865;22;19911;-77
2022/06/03 11:32:27;;;;;;;;;;;24.10;71.70;;;;;;6276400;22;19990;-77
2022/06/03 11:35:00;;;;;;;;;;;24.20;65.50;;;;;;6275759;22;19926;-83
2022/06/03 11:37:32;;;;;;;;;;;24.30;60.60;;;;;;6275937;22;19915;-83
2022/06/03 11:40:04;;;;;;;;;;;24.20;64.70;;;;;;6251219;22;20288;-83
2022/06/03 11:42:29;;;;;;;;;;;24.10;64.90;;;;;;6276514;22;19942;-77
2022/06/03 11:44:58;;;;;;;;;;;24.20;69.00;;;;;;6275973;22;20347;-82
2022/06/03 11:47:29;;;;;;;;;;;24.30;68.30;;;;;;6251179;22;19911;-81
2022/06/03 11:49:55;;;;;;;;;;;24.50;72.40;;;;;;6274827;22;19922;-78
2022/06/03 11:52:21;;;;;;;;;;;24.60;63.50;;;;;;6274376;22;19915;-78
2022/06/03 11:54:47;;;;;;;;;;;24.50;64.30;;;;;;6249375;22;20320;-78
2022/06/03 11:57:13;;;;;;;;;;;24.50;61.00;;;;;;6274990;22;19946;-78
2022/06/03 11:59:52;;;;;;;;;;;24.50;63.60;;;;;;6249383;22;20324;-78
2022/06/03 12:02:18;;;;;;;;;;;24.30;62.50;;;;;;6248982;22;19972;-79
2022/06/03 12:04:49;;;;;;;;;;;24.30;63.00;;;;;;6249134;22;19963;-78
2022/06/03 12:07:15;;;;;;;;;;;24.20;58.60;;;;;;6249845;22;20316;-79
2022/06/03 12:09:53;;;;;;;;;;;24.30;62.20;;;;;;6275020;22;19915;-78
2022/06/03 12:15:31;;;;;;;;;;;24.30;62.80;;;;;;6274789;22;19934;-78
2022/06/03 12:17:57;;;;;;;;;;;24.30;65.00;;;;;;6275003;22;19911;-79
2022/06/03 12:20:32;;;;;;;;;;;24.40;60.80;;;;;;6275189;22;20503;-78
2022/06/03 12:22:58;;;;;;;;;;;24.40;63.20;;;;;;6275381;22;20317;-78
2022/06/03 12:25:34;;;;;;;;;;;24.50;64.90;;;;;;6275106;22;20289;-79
2022/06/03 12:28:01;;;;;;;;;;;24.70;67.40;;;;;;6274920;22;19946;-78
2022/06/03 12:30:47;;;;;;;;;;;24.70;62.00;;;;;;6274490;22;19911;-80
2022/06/03 12:33:20;;;;;;;;;;;24.70;59.90;;;;;;6248737;22;20275;-80
2022/06/03 12:35:48;;;;;;;;;;;24.80;63.00;;;;;;6249476;22;20395;-78
2022/06/03 12:38:20;;;;;;;;;;;24.70;55.90;;;;;;6274848;22;19915;-79
2022/06/03 12:40:46;;;;;;;;;;;24.30;55.70;;;;;;6274795;22;20585;-80
2022/06/03 12:43:21;;;;;;;;;;;24.20;58.50;;;;;;6274831;22;19914;-79
2022/06/03 12:45:56;;;;;;;;;;;24.20;60.60;;;;;;6275122;22;20510;-80
2022/06/03 12:48:37;;;;;;;;;;;24.10;59.50;;;;;;6274816;22;20355;-79
2022/06/03 12:51:17;;;;;;;;;;;24.20;59.60;;;;;;6273949;22;19942;-78
2022/06/03 12:53:44;;;;;;;;;;;24.30;62.70;;;;;;6275096;22;19933;-77
2022/06/03 12:56:33;;;;;;;;;;;24.40;57.20;;;;;;6275928;22;19911;-79
2022/06/03 12:59:09;;;;;;;;;;;24.40;58.70;;;;;;6240534;22;19993;-79
2022/06/03 13:01:42;;;;;;;;;;;24.60;62.10;;;;;;6249207;22;20099;-79
2022/06/03 13:04:24;;;;;;;;;;;24.50;55.10;;;;;;6249352;22;19911;-79
2022/06/03 13:07:13;;;;;;;;;;;24.50;59.40;;;;;;6274535;22;19930;-79
2022/06/03 13:09:54;;;;;;;;;;;24.50;59.20;;;;;;6241365;22;19911;-81
2022/06/03 13:12:27;;;;;;;;;;;24.70;60.10;;;;;;6275679;22;19947;-80
2022/06/03 13:14:52;;;;;;;;;;;24.70;57.60;;;;;;6257962;22;19911;-80
2022/06/03 13:17:37;;;;;;;;;;;24.90;59.00;;;;;;6193429;23;20038;-80
2022/06/03 13:20:03;;;;;;;;;;;24.90;54.60;;;;;;6218018;23;19916;-81
2022/06/03 13:22:42;;;;;;;;;;;24.80;56.70;;;;;;6193260;23;19960;-80
2022/06/03 13:25:13;;;;;;;;;;;24.70;58.00;;;;;;6243484;23;19919;-79
2022/06/03 13:27:39;;;;;;;;;;;24.70;56.90;;;;;;6219548;23;19919;-78
2022/06/03 13:30:13;;;;;;;;;;;24.70;57.60;;;;;;6218598;23;19916;-80
2022/06/03 13:32:40;;;;;;;;;;;24.80;56.20;;;;;;6198970;23;19915;-73
2022/06/03 13:35:15;;;;;;;;;;;24.80;56.10;;;;;;6257472;23;19922;-72
2022/06/03 13:37:45;;;;;;;;;;;24.80;55.70;;;;;;6254887;23;19918;-73
2022/06/03 13:40:27;;;;;;;;;;;24.70;55.60;;;;;;6224720;23;19983;-73
2022/06/03 13:42:59;;;;;;;;;;;24.70;57.30;;;;;;6250447;22;19911;-73
2022/06/03 13:45:43;;;;;;;;;;;24.70;54.80;;;;;;6246985;23;19954;-73
2022/06/03 13:48:37;;;;;;;;;;;24.60;52.70;;;;;;6221619;23;19985;-73
2022/06/03 13:51:35;;;;;;;;;;;24.50;56.40;;;;;;6220425;23;19915;-72
2022/06/03 13:54:04;;;;;;;;;;;24.40;54.80;;;;;;6177214;23;19911;-72
2022/06/03 13:56:30;;;;;;;;;;;24.30;55.70;;;;;;6255324;23;20368;-71
2022/06/03 13:58:57;;;;;;;;;;;24.20;55.20;;;;;;6253902;23;19915;-72
2022/06/03 14:01:31;;;;;;;;;;;24.30;55.00;;;;;;6226060;23;19911;-72
2022/06/03 14:04:06;;;;;;;;;;;24.30;54.90;;;;;;6244185;22;20276;-69
2022/06/03 14:06:31;;;;;;;;;;;24.30;55.70;;;;;;6241230;23;19912;-77
2022/06/03 14:09:08;;;;;;;;;;;24.20;58.50;;;;;;6215913;23;20237;-76
2022/06/03 14:11:40;;;;;;;;;;;24.30;56.00;;;;;;6215476;23;19922;-69
2022/06/03 14:14:15;;;;;;;;;;;24.30;56.80;;;;;;6242749;22;19933;-69
2022/06/03 14:16:44;;;;;;;;;;;24.30;58.60;;;;;;6215515;23;19982;-71
2022/06/03 14:19:10;;;;;;;;;;;24.30;58.00;;;;;;6215647;23;19923;-69
2022/06/03 14:21:41;;;;;;;;;;;24.10;56.90;;;;;;6242439;23;19911;-69
2022/06/03 14:24:12;;;;;;;;;;;23.80;57.60;;;;;;6215664;23;20253;-69
2022/06/03 14:26:46;;;;;;;;;;;23.80;61.10;;;;;;6243324;23;19912;-70
2022/06/03 14:29:14;;;;;;;;;;;24.00;61.70;;;;;;6216828;23;19961;-70
2022/06/03 14:31:41;;;;;;;;;;;24.10;59.80;;;;;;6243480;23;19911;-71
2022/06/03 14:34:19;;;;;;;;;;;24.20;57.20;;;;;;6217039;23;19911;-81
2022/06/03 14:36:48;;;;;;;;;;;24.30;54.60;;;;;;6194588;23;19917;-78
2022/06/03 14:39:25;;;;;;;;;;;24.20;56.60;;;;;;6192486;23;19965;-78
2022/06/03 14:41:53;;;;;;;;;;;24.20;59.00;;;;;;6221585;23;19931;-79
2022/06/03 14:44:21;;;;;;;;;;;24.20;54.70;;;;;;6219868;23;19911;-79
2022/06/03 14:46:46;;;;;;;;;;;24.10;54.30;;;;;;6221528;23;19918;-78
2022/06/03 14:49:14;;;;;;;;;;;24.10;55.50;;;;;;6219756;23;19912;-78
2022/06/03 14:51:52;;;;;;;;;;;24.10;56.60;;;;;;6194917;23;19911;-80
2022/06/03 14:54:29;;;;;;;;;;;24.20;54.60;;;;;;6222430;23;19918;-79
2022/06/03 14:56:57;;;;;;;;;;;24.20;55.70;;;;;;6198109;23;19920;-80
2022/06/03 14:59:22;;;;;;;;;;;24.20;54.20;;;;;;6195534;23;19916;-79
2022/06/03 15:01:50;;;;;;;;;;;24.20;56.00;;;;;;6195146;23;19950;-79
2022/06/03 15:04:22;;;;;;;;;;;24.20;56.90;;;;;;6247893;22;19947;-79
2022/06/03 15:06:54;;;;;;;;;;;24.20;56.90;;;;;;6248359;23;19984;-79
2022/06/03 15:09:34;;;;;;;;;;;24.10;53.50;;;;;;6218425;23;19991;-79
2022/06/03 15:12:01;;;;;;;;;;;23.90;55.10;;;;;;6220745;23;19918;-80
2022/06/03 15:14:26;;;;;;;;;;;23.80;55.40;;;;;;6214308;22;19911;-80
2022/06/03 15:16:58;;;;;;;;;;;23.60;55.60;;;;;;6253386;22;19911;-81